sensor_id;sensor_type;location;lat;lon;timestamp;temperature;humidity
25302;DHT22;13243;50.888;4.724;2023-02-10T00:03:37;4.50;99.90
25302;DHT22;13243;50.888;4.724;2023-02-10T00:08:39;4.40;99.90
25302;DHT22;13243;50.888;4.724;2023-02-10T00:13:42;4.40;99.90
25302;DHT22;13243;50.888;4.724;2023-02-10T00:18:44;4.20;99.90
25302;DHT22;13243;50.888;4.724;2023-02-10T00:23:46;4.00;99.90
25302;DHT22;13243;50.888;4.724;2023-02-10T00:28:48;3.90;99.90
25302;DHT22;13243;50.888;4.724;2023-02-10T00:33:50;4.00;99.90
25302;DHT22;13243;50.888;4.724;2023-02-10T00:38:52;3.90;99.90
25302;DHT22;13243;50.888;4.724;2023-02-10T00:43:53;4.00;99.90
25302;DHT22;13243;50.888;4.724;2023-02-10T00:48:55;4.10;99.90
25302;DHT22;13243;50.888;4.724;2023-02-10T00:53:57;4.10;99.90
25302;DHT22;13243;50.888;4.724;2023-02-10T00:58:59;4.20;99.90
25302;DHT22;13243;50.888;4.724;2023-02-10T01:04:01;4.30;99.90
25302;DHT22;13243;50.888;4.724;2023-02-10T01:09:03;4.20;99.90
25302;DHT22;13243;50.888;4.724;2023-02-10T01:14:05;4.30;99.90
25302;DHT22;13243;50.888;4.724;2023-02-10T01:19:07;4.30;99.90
25302;DHT22;13243;50.888;4.724;2023-02-10T01:24:11;4.30;99.90
25302;DHT22;13243;50.888;4.724;2023-02-10T01:29:13;4.20;99.90
25302;DHT22;13243;50.888;4.724;2023-02-10T01:34:15;4.20;99.90
25302;DHT22;13243;50.888;4.724;2023-02-10T01:39:16;4.10;99.90
25302;DHT22;13243;50.888;4.724;2023-02-10T01:49:26;3.90;99.90
25302;DHT22;13243;50.888;4.724;2023-02-10T01:54:37;3.90;99.90
25302;DHT22;13243;50.888;4.724;2023-02-10T01:59:41;3.90;99.90
25302;DHT22;13243;50.888;4.724;2023-02-10T02:04:58;3.80;99.90
25302;DHT22;13243;50.888;4.724;2023-02-10T02:10:02;3.80;99.90
25302;DHT22;13243;50.888;4.724;2023-02-10T02:15:19;3.70;99.90
25302;DHT22;13243;50.888;4.724;2023-02-10T02:26:01;3.50;99.90
25302;DHT22;13243;50.888;4.724;2023-02-10T02:31:35;3.50;99.90
25302;DHT22;13243;50.888;4.724;2023-02-10T02:36:46;3.40;99.90
25302;DHT22;13243;50.888;4.724;2023-02-10T02:42:25;3.40;99.90
25302;DHT22;13243;50.888;4.724;2023-02-10T02:58:24;3.20;99.90
25302;DHT22;13243;50.888;4.724;2023-02-10T03:03:28;3.20;99.90
25302;DHT22;13243;50.888;4.724;2023-02-10T03:08:32;3.10;99.90
25302;DHT22;13243;50.888;4.724;2023-02-10T03:13:34;3.00;99.90
25302;DHT22;13243;50.888;4.724;2023-02-10T03:18:36;3.00;99.90
25302;DHT22;13243;50.888;4.724;2023-02-10T03:23:38;3.00;99.90
25302;DHT22;13243;50.888;4.724;2023-02-10T03:28:40;2.90;99.90
25302;DHT22;13243;50.888;4.724;2023-02-10T03:33:42;2.80;99.90
25302;DHT22;13243;50.888;4.724;2023-02-10T03:38:44;2.60;99.90
25302;DHT22;13243;50.888;4.724;2023-02-10T03:43:47;2.50;99.90
25302;DHT22;13243;50.888;4.724;2023-02-10T03:48:48;2.50;99.90
25302;DHT22;13243;50.888;4.724;2023-02-10T03:53:50;2.10;99.90
25302;DHT22;13243;50.888;4.724;2023-02-10T03:58:52;2.10;99.90
25302;DHT22;13243;50.888;4.724;2023-02-10T04:03:54;1.90;99.90
25302;DHT22;13243;50.888;4.724;2023-02-10T04:08:56;2.00;99.90
25302;DHT22;13243;50.888;4.724;2023-02-10T04:13:57;2.00;99.90
25302;DHT22;13243;50.888;4.724;2023-02-10T04:18:59;1.90;99.90
25302;DHT22;13243;50.888;4.724;2023-02-10T04:24:01;1.70;99.90
25302;DHT22;13243;50.888;4.724;2023-02-10T04:29:03;1.60;99.90
25302;DHT22;13243;50.888;4.724;2023-02-10T04:34:06;1.60;99.90
25302;DHT22;13243;50.888;4.724;2023-02-10T04:39:08;1.50;99.90
25302;DHT22;13243;50.888;4.724;2023-02-10T04:44:10;1.40;99.90
25302;DHT22;13243;50.888;4.724;2023-02-10T04:49:12;1.50;99.90
25302;DHT22;13243;50.888;4.724;2023-02-10T04:54:16;1.40;99.90
25302;DHT22;13243;50.888;4.724;2023-02-10T04:59:18;1.60;99.90
25302;DHT22;13243;50.888;4.724;2023-02-10T05:04:20;1.80;99.90
25302;DHT22;13243;50.888;4.724;2023-02-10T05:09:24;1.80;99.90
25302;DHT22;13243;50.888;4.724;2023-02-10T05:14:26;1.90;99.90
25302;DHT22;13243;50.888;4.724;2023-02-10T05:19:28;1.90;99.90
25302;DHT22;13243;50.888;4.724;2023-02-10T05:24:30;2.00;99.90
25302;DHT22;13243;50.888;4.724;2023-02-10T05:29:31;1.90;99.90
25302;DHT22;13243;50.888;4.724;2023-02-10T05:34:33;1.90;99.90
25302;DHT22;13243;50.888;4.724;2023-02-10T05:39:35;1.70;99.90
25302;DHT22;13243;50.888;4.724;2023-02-10T05:44:37;1.80;99.90
25302;DHT22;13243;50.888;4.724;2023-02-10T05:49:39;1.70;99.90
25302;DHT22;13243;50.888;4.724;2023-02-10T05:54:40;1.80;99.90
25302;DHT22;13243;50.888;4.724;2023-02-10T05:59:42;1.90;99.90
25302;DHT22;13243;50.888;4.724;2023-02-10T06:04:44;1.80;99.90
25302;DHT22;13243;50.888;4.724;2023-02-10T06:09:46;1.90;99.90
25302;DHT22;13243;50.888;4.724;2023-02-10T06:14:48;1.80;99.90
25302;DHT22;13243;50.888;4.724;2023-02-10T06:19:50;1.90;99.90
25302;DHT22;13243;50.888;4.724;2023-02-10T06:24:51;1.90;99.90
25302;DHT22;13243;50.888;4.724;2023-02-10T06:29:53;1.90;99.90
25302;DHT22;13243;50.888;4.724;2023-02-10T06:34:55;1.70;99.90
25302;DHT22;13243;50.888;4.724;2023-02-10T06:39:57;1.80;99.90
25302;DHT22;13243;50.888;4.724;2023-02-10T06:44:59;1.80;99.90
25302;DHT22;13243;50.888;4.724;2023-02-10T06:50:02;1.90;99.90
25302;DHT22;13243;50.888;4.724;2023-02-10T06:55:06;1.60;99.90
25302;DHT22;13243;50.888;4.724;2023-02-10T07:00:10;1.60;99.90
25302;DHT22;13243;50.888;4.724;2023-02-10T07:05:12;1.50;99.90
25302;DHT22;13243;50.888;4.724;2023-02-10T07:10:14;1.40;99.90
25302;DHT22;13243;50.888;4.724;2023-02-10T07:15:16;1.50;99.90
25302;DHT22;13243;50.888;4.724;2023-02-10T07:20:20;1.60;99.90
25302;DHT22;13243;50.888;4.724;2023-02-10T07:25:22;1.90;99.90
25302;DHT22;13243;50.888;4.724;2023-02-10T07:30:24;1.90;99.90
25302;DHT22;13243;50.888;4.724;2023-02-10T07:35:26;1.80;99.90
25302;DHT22;13243;50.888;4.724;2023-02-10T07:40:28;1.80;99.90
25302;DHT22;13243;50.888;4.724;2023-02-10T07:45:31;1.80;99.90
25302;DHT22;13243;50.888;4.724;2023-02-10T07:50:33;1.80;99.90
25302;DHT22;13243;50.888;4.724;2023-02-10T07:55:36;1.90;99.90
25302;DHT22;13243;50.888;4.724;2023-02-10T08:00:38;2.00;99.90
25302;DHT22;13243;50.888;4.724;2023-02-10T08:05:40;2.10;99.90
25302;DHT22;13243;50.888;4.724;2023-02-10T08:10:43;2.20;99.90
25302;DHT22;13243;50.888;4.724;2023-02-10T08:15:45;2.30;99.90
25302;DHT22;13243;50.888;4.724;2023-02-10T08:20:48;2.40;99.90
25302;DHT22;13243;50.888;4.724;2023-02-10T08:25:50;2.50;99.90
25302;DHT22;13243;50.888;4.724;2023-02-10T08:30:53;2.60;99.90
25302;DHT22;13243;50.888;4.724;2023-02-10T08:35:56;2.70;99.90
25302;DHT22;13243;50.888;4.724;2023-02-10T08:40:58;2.70;99.90
25302;DHT22;13243;50.888;4.724;2023-02-10T08:46:00;2.60;99.90
25302;DHT22;13243;50.888;4.724;2023-02-10T08:51:16;2.70;99.90
25302;DHT22;13243;50.888;4.724;2023-02-10T08:56:18;3.00;99.90
25302;DHT22;13243;50.888;4.724;2023-02-10T09:01:23;3.50;99.90
25302;DHT22;13243;50.888;4.724;2023-02-10T09:06:38;3.60;99.90
25302;DHT22;13243;50.888;4.724;2023-02-10T09:11:42;3.60;99.90
25302;DHT22;13243;50.888;4.724;2023-02-10T09:16:44;3.60;99.90
25302;DHT22;13243;50.888;4.724;2023-02-10T09:21:46;3.60;99.90
25302;DHT22;13243;50.888;4.724;2023-02-10T09:26:48;3.80;99.90
25302;DHT22;13243;50.888;4.724;2023-02-10T09:31:50;3.90;99.90
25302;DHT22;13243;50.888;4.724;2023-02-10T09:36:52;4.10;99.90
25302;DHT22;13243;50.888;4.724;2023-02-10T10:07:34;4.20;99.90
25302;DHT22;13243;50.888;4.724;2023-02-10T10:12:40;4.30;99.90
25302;DHT22;13243;50.888;4.724;2023-02-10T10:28:42;4.70;99.90
25302;DHT22;13243;50.888;4.724;2023-02-10T10:33:56;4.70;99.90
25302;DHT22;13243;50.888;4.724;2023-02-10T10:44:16;5.10;99.90
25302;DHT22;13243;50.888;4.724;2023-02-10T10:49:18;4.90;99.90
25302;DHT22;13243;50.888;4.724;2023-02-10T10:54:21;5.00;99.90
25302;DHT22;13243;50.888;4.724;2023-02-10T10:59:32;5.20;99.90
25302;DHT22;13243;50.888;4.724;2023-02-10T11:04:34;5.40;99.90
25302;DHT22;13243;50.888;4.724;2023-02-10T11:09:49;5.80;99.90
25302;DHT22;13243;50.888;4.724;2023-02-10T11:14:52;5.90;99.90
25302;DHT22;13243;50.888;4.724;2023-02-10T11:30:34;6.00;99.90
25302;DHT22;13243;50.888;4.724;2023-02-10T11:35:36;6.20;99.90
25302;DHT22;13243;50.888;4.724;2023-02-10T11:40:51;6.40;99.90
25302;DHT22;13243;50.888;4.724;2023-02-10T11:45:56;6.50;99.90
25302;DHT22;13243;50.888;4.724;2023-02-10T11:51:14;6.60;99.90
25302;DHT22;13243;50.888;4.724;2023-02-10T12:01:53;7.00;99.90
25302;DHT22;13243;50.888;4.724;2023-02-10T12:44:24;8.30;99.90
25302;DHT22;13243;50.888;4.724;2023-02-10T13:00:52;8.30;99.90
25302;DHT22;13243;50.888;4.724;2023-02-10T13:16:57;8.50;99.90
25302;DHT22;13243;50.888;4.724;2023-02-10T13:32:42;8.40;99.90
25302;DHT22;13243;50.888;4.724;2023-02-10T13:37:51;8.00;99.90
25302;DHT22;13243;50.888;4.724;2023-02-10T13:43:03;7.80;99.90
25302;DHT22;13243;50.888;4.724;2023-02-10T13:48:21;7.80;99.90
25302;DHT22;13243;50.888;4.724;2023-02-10T13:58:51;7.60;99.90
25302;DHT22;13243;50.888;4.724;2023-02-10T14:03:56;7.60;99.90
25302;DHT22;13243;50.888;4.724;2023-02-10T14:09:18;7.60;99.90
25302;DHT22;13243;50.888;4.724;2023-02-10T14:14:32;7.60;99.90
25302;DHT22;13243;50.888;4.724;2023-02-10T14:19:37;7.50;99.90
25302;DHT22;13243;50.888;4.724;2023-02-10T14:24:43;7.40;99.90
25302;DHT22;13243;50.888;4.724;2023-02-10T14:30:19;7.50;99.90
25302;DHT22;13243;50.888;4.724;2023-02-10T14:35:25;7.40;99.90
25302;DHT22;13243;50.888;4.724;2023-02-10T14:40:31;7.30;99.90
25302;DHT22;13243;50.888;4.724;2023-02-10T14:45:33;7.30;99.90
25302;DHT22;13243;50.888;4.724;2023-02-10T14:50:40;7.40;99.90
25302;DHT22;13243;50.888;4.724;2023-02-10T14:55:53;7.50;99.90
25302;DHT22;13243;50.888;4.724;2023-02-10T15:06:03;7.50;99.90
25302;DHT22;13243;50.888;4.724;2023-02-10T15:11:11;7.40;99.90
25302;DHT22;13243;50.888;4.724;2023-02-10T15:16:15;7.30;99.90
25302;DHT22;13243;50.888;4.724;2023-02-10T15:21:30;7.20;99.90
25302;DHT22;13243;50.888;4.724;2023-02-10T15:26:32;7.50;99.90
25302;DHT22;13243;50.888;4.724;2023-02-10T15:31:36;8.10;99.90
25302;DHT22;13243;50.888;4.724;2023-02-10T15:36:46;7.80;99.90
25302;DHT22;13243;50.888;4.724;2023-02-10T15:52:42;7.30;99.90
25302;DHT22;13243;50.888;4.724;2023-02-10T15:57:41;7.10;99.90
25302;DHT22;13243;50.888;4.724;2023-02-10T16:02:43;7.20;99.90
25302;DHT22;13243;50.888;4.724;2023-02-10T16:07:46;7.10;99.90
25302;DHT22;13243;50.888;4.724;2023-02-10T16:12:48;7.20;99.90
25302;DHT22;13243;50.888;4.724;2023-02-10T16:17:54;7.20;99.90
25302;DHT22;13243;50.888;4.724;2023-02-10T16:22:56;7.30;99.90
25302;DHT22;13243;50.888;4.724;2023-02-10T16:27:58;7.10;99.90
25302;DHT22;13243;50.888;4.724;2023-02-10T16:33:00;6.90;99.90
25302;DHT22;13243;50.888;4.724;2023-02-10T16:38:02;6.90;99.90
25302;DHT22;13243;50.888;4.724;2023-02-10T16:43:04;6.80;99.90
25302;DHT22;13243;50.888;4.724;2023-02-10T16:48:06;6.80;99.90
25302;DHT22;13243;50.888;4.724;2023-02-10T16:53:10;6.60;99.90
25302;DHT22;13243;50.888;4.724;2023-02-10T16:58:15;6.70;99.90
25302;DHT22;13243;50.888;4.724;2023-02-10T17:03:17;6.70;99.90
25302;DHT22;13243;50.888;4.724;2023-02-10T17:08:19;6.60;99.90
25302;DHT22;13243;50.888;4.724;2023-02-10T17:13:21;6.50;99.90
25302;DHT22;13243;50.888;4.724;2023-02-10T17:18:23;6.60;99.90
25302;DHT22;13243;50.888;4.724;2023-02-10T17:23:25;6.60;99.90
25302;DHT22;13243;50.888;4.724;2023-02-10T17:28:27;6.70;99.90
25302;DHT22;13243;50.888;4.724;2023-02-10T17:33:28;6.70;99.90
25302;DHT22;13243;50.888;4.724;2023-02-10T17:38:30;6.70;99.90
25302;DHT22;13243;50.888;4.724;2023-02-10T17:43:51;6.50;99.90
25302;DHT22;13243;50.888;4.724;2023-02-10T17:48:54;6.40;99.90
25302;DHT22;13243;50.888;4.724;2023-02-10T17:53:58;6.40;99.90
25302;DHT22;13243;50.888;4.724;2023-02-10T17:59:02;6.50;99.90
25302;DHT22;13243;50.888;4.724;2023-02-10T18:04:05;6.50;99.90
25302;DHT22;13243;50.888;4.724;2023-02-10T18:09:07;6.60;99.90
25302;DHT22;13243;50.888;4.724;2023-02-10T18:14:09;6.50;99.90
25302;DHT22;13243;50.888;4.724;2023-02-10T18:19:11;6.50;99.90
25302;DHT22;13243;50.888;4.724;2023-02-10T18:24:13;6.50;99.90
25302;DHT22;13243;50.888;4.724;2023-02-10T18:29:15;6.40;99.90
25302;DHT22;13243;50.888;4.724;2023-02-10T18:34:17;6.60;99.90
25302;DHT22;13243;50.888;4.724;2023-02-10T18:39:19;6.40;99.90
25302;DHT22;13243;50.888;4.724;2023-02-10T18:44:21;6.60;99.90
25302;DHT22;13243;50.888;4.724;2023-02-10T18:49:23;6.60;99.90
25302;DHT22;13243;50.888;4.724;2023-02-10T18:54:25;6.60;99.90
25302;DHT22;13243;50.888;4.724;2023-02-10T18:59:28;6.70;99.90
25302;DHT22;13243;50.888;4.724;2023-02-10T19:04:31;6.60;99.90
25302;DHT22;13243;50.888;4.724;2023-02-10T19:09:33;6.70;99.90
25302;DHT22;13243;50.888;4.724;2023-02-10T19:14:41;6.70;99.90
25302;DHT22;13243;50.888;4.724;2023-02-10T19:19:43;6.70;99.90
25302;DHT22;13243;50.888;4.724;2023-02-10T19:24:45;6.70;99.90
25302;DHT22;13243;50.888;4.724;2023-02-10T19:29:47;6.70;99.90
25302;DHT22;13243;50.888;4.724;2023-02-10T19:34:49;6.70;99.90
25302;DHT22;13243;50.888;4.724;2023-02-10T19:39:51;6.80;99.90
25302;DHT22;13243;50.888;4.724;2023-02-10T19:44:53;6.80;99.90
25302;DHT22;13243;50.888;4.724;2023-02-10T19:49:55;6.70;99.90
25302;DHT22;13243;50.888;4.724;2023-02-10T19:54:58;6.80;99.90
25302;DHT22;13243;50.888;4.724;2023-02-10T20:00:00;6.80;99.90
25302;DHT22;13243;50.888;4.724;2023-02-10T20:05:02;6.80;99.90
25302;DHT22;13243;50.888;4.724;2023-02-10T20:10:04;6.70;99.90
25302;DHT22;13243;50.888;4.724;2023-02-10T20:15:07;6.70;99.90
25302;DHT22;13243;50.888;4.724;2023-02-10T20:20:09;6.80;99.90
25302;DHT22;13243;50.888;4.724;2023-02-10T20:25:11;6.80;99.90
25302;DHT22;13243;50.888;4.724;2023-02-10T20:30:13;6.80;99.90
25302;DHT22;13243;50.888;4.724;2023-02-10T20:35:15;6.80;99.90
25302;DHT22;13243;50.888;4.724;2023-02-10T20:40:17;6.80;99.90
25302;DHT22;13243;50.888;4.724;2023-02-10T20:45:19;6.80;99.90
25302;DHT22;13243;50.888;4.724;2023-02-10T20:50:21;6.90;99.90
25302;DHT22;13243;50.888;4.724;2023-02-10T20:55:23;6.90;99.90
25302;DHT22;13243;50.888;4.724;2023-02-10T21:00:25;6.90;99.90
25302;DHT22;13243;50.888;4.724;2023-02-10T21:05:27;6.80;99.90
25302;DHT22;13243;50.888;4.724;2023-02-10T21:10:29;6.80;99.90
25302;DHT22;13243;50.888;4.724;2023-02-10T21:15:31;6.80;99.90
25302;DHT22;13243;50.888;4.724;2023-02-10T21:20:32;6.80;99.90
25302;DHT22;13243;50.888;4.724;2023-02-10T21:25:35;6.80;99.90
25302;DHT22;13243;50.888;4.724;2023-02-10T21:30:41;6.90;99.90
25302;DHT22;13243;50.888;4.724;2023-02-10T21:35:48;6.90;99.90
25302;DHT22;13243;50.888;4.724;2023-02-10T21:41:00;6.90;99.90
25302;DHT22;13243;50.888;4.724;2023-02-10T21:46:02;6.90;99.90
25302;DHT22;13243;50.888;4.724;2023-02-10T21:51:04;6.90;99.90
25302;DHT22;13243;50.888;4.724;2023-02-10T21:56:06;6.80;99.90
25302;DHT22;13243;50.888;4.724;2023-02-10T22:01:09;6.80;99.90
25302;DHT22;13243;50.888;4.724;2023-02-10T22:06:11;6.90;99.90
25302;DHT22;13243;50.888;4.724;2023-02-10T22:11:15;6.90;99.90
25302;DHT22;13243;50.888;4.724;2023-02-10T22:16:18;6.80;99.90
25302;DHT22;13243;50.888;4.724;2023-02-10T22:21:22;6.90;99.90
25302;DHT22;13243;50.888;4.724;2023-02-10T22:26:26;6.90;99.90
25302;DHT22;13243;50.888;4.724;2023-02-10T22:31:30;6.70;99.90
25302;DHT22;13243;50.888;4.724;2023-02-10T22:36:33;7.00;99.90
25302;DHT22;13243;50.888;4.724;2023-02-10T22:41:35;7.00;99.90
25302;DHT22;13243;50.888;4.724;2023-02-10T22:46:37;6.90;99.90
25302;DHT22;13243;50.888;4.724;2023-02-10T22:51:40;6.90;99.90
25302;DHT22;13243;50.888;4.724;2023-02-10T22:56:43;7.00;99.90
25302;DHT22;13243;50.888;4.724;2023-02-10T23:01:45;6.90;99.90
25302;DHT22;13243;50.888;4.724;2023-02-10T23:06:47;6.90;99.90
25302;DHT22;13243;50.888;4.724;2023-02-10T23:11:51;6.90;99.90
25302;DHT22;13243;50.888;4.724;2023-02-10T23:16:54;6.90;99.90
25302;DHT22;13243;50.888;4.724;2023-02-10T23:21:57;6.90;99.90
25302;DHT22;13243;50.888;4.724;2023-02-10T23:26:59;6.80;99.90
25302;DHT22;13243;50.888;4.724;2023-02-10T23:32:01;6.80;99.90
25302;DHT22;13243;50.888;4.724;2023-02-10T23:37:03;6.80;99.90
25302;DHT22;13243;50.888;4.724;2023-02-10T23:42:05;6.80;99.90
25302;DHT22;13243;50.888;4.724;2023-02-10T23:47:07;6.80;99.90
25302;DHT22;13243;50.888;4.724;2023-02-10T23:52:09;6.70;99.90
25302;DHT22;13243;50.888;4.724;2023-02-10T23:57:11;6.70;99.90
